Time;durP1;ratioP1;P1;durP2;ratioP2;P2;SDS_P1;SDS_P2;PMS_P1;PMS_P2;Temp;Humidity;BMP_temperature;BMP_pressure;BME280_temperature;BME280_humidity;BME280_pressure;Samples;Min_cycle;Max_cycle;Signal;HPM_P1;HPM_P2
2022/03/03 00:01:37;;;;;;;14.10;9.80;;;4.50;57.30;;;;;;4977452;28;20593;-65
2022/03/03 00:04:03;;;;;;;15.05;9.30;;;4.50;57.30;;;;;;4992054;28;20101;-65
2022/03/03 00:06:28;;;;;;;13.57;9.00;;;4.40;57.70;;;;;;4992243;28;20030;-65
2022/03/03 00:08:54;;;;;;;13.57;9.45;;;4.40;57.70;;;;;;4977670;28;20109;-65
2022/03/03 00:11:19;;;;;;;16.25;9.18;;;4.40;57.90;;;;;;4991935;28;20477;-65
2022/03/03 00:13:45;;;;;;;16.77;9.88;;;4.40;57.90;;;;;;4992000;28;20030;-65
2022/03/03 00:16:10;;;;;;;14.45;9.60;;;4.30;58.20;;;;;;4992056;28;20034;-66
2022/03/03 00:18:36;;;;;;;17.00;10.55;;;4.30;58.50;;;;;;4979790;28;20035;-65
2022/03/03 00:21:02;;;;;;;16.60;9.73;;;4.30;58.50;;;;;;4991769;28;20506;-65
2022/03/03 00:23:27;;;;;;;15.70;9.85;;;4.20;58.50;;;;;;4977066;28;20050;-65
2022/03/03 00:25:53;;;;;;;14.18;9.18;;;4.20;58.70;;;;;;4991989;28;20053;-65
2022/03/03 00:28:18;;;;;;;15.30;9.85;;;4.20;58.70;;;;;;4991624;28;20030;-65
2022/03/03 00:30:44;;;;;;;13.40;8.90;;;4.10;58.80;;;;;;4989194;28;20521;-65
2022/03/03 00:33:10;;;;;;;12.68;8.35;;;4.10;58.70;;;;;;4992053;28;20023;-65
2022/03/03 00:35:36;;;;;;;14.10;8.93;;;4.10;58.70;;;;;;4982376;28;20095;-65
2022/03/03 00:38:01;;;;;;;14.20;9.32;;;4.10;58.80;;;;;;4991452;28;20026;-65
2022/03/03 00:40:27;;;;;;;15.75;9.70;;;4.10;58.70;;;;;;4991597;28;20077;-65
2022/03/03 00:42:52;;;;;;;13.85;9.10;;;4.00;58.90;;;;;;4974142;28;20030;-65
2022/03/03 00:45:18;;;;;;;16.83;9.93;;;4.00;59.00;;;;;;4979307;28;20022;-65
2022/03/03 00:47:43;;;;;;;15.98;9.93;;;4.00;59.30;;;;;;4991223;28;20034;-65
2022/03/03 00:50:09;;;;;;;14.20;9.00;;;4.00;59.40;;;;;;4991637;28;20030;-65
2022/03/03 00:52:34;;;;;;;14.73;9.63;;;3.90;59.40;;;;;;4991429;28;20030;-65
2022/03/03 00:55:00;;;;;;;15.73;9.43;;;3.90;59.40;;;;;;4963199;28;20493;-65
2022/03/03 00:57:26;;;;;;;14.95;9.48;;;3.80;59.50;;;;;;4960066;28;20038;-65
2022/03/03 00:59:52;;;;;;;13.35;8.27;;;3.80;59.50;;;;;;4973728;28;20022;-65
2022/03/03 01:02:17;;;;;;;14.13;8.70;;;3.80;59.60;;;;;;4991166;28;20019;-65
2022/03/03 01:04:43;;;;;;;11.05;7.95;;;3.80;59.60;;;;;;4990915;28;20026;-65
2022/03/03 01:07:08;;;;;;;14.82;8.02;;;3.80;59.60;;;;;;4973443;28;20118;-65
2022/03/03 01:09:34;;;;;;;12.98;7.97;;;3.70;59.60;;;;;;4991060;28;20169;-65
2022/03/03 01:11:59;;;;;;;16.52;10.10;;;3.70;59.70;;;;;;4957338;28;20072;-65
2022/03/03 01:14:25;;;;;;;13.60;8.43;;;3.70;60.30;;;;;;4990842;28;20097;-65
2022/03/03 01:16:52;;;;;;;11.77;7.82;;;3.60;60.20;;;;;;4990800;28;20109;-65
2022/03/03 01:19:18;;;;;;;12.98;7.93;;;3.60;60.10;;;;;;4990824;28;20135;-65
2022/03/03 01:21:43;;;;;;;11.45;7.55;;;3.60;60.20;;;;;;4990634;28;20023;-65
2022/03/03 01:24:09;;;;;;;10.82;7.15;;;3.60;60.20;;;;;;4990728;28;20081;-65
2022/03/03 01:26:34;;;;;;;12.55;8.32;;;3.50;60.20;;;;;;4976559;28;20146;-65
2022/03/03 01:29:00;;;;;;;13.40;8.43;;;3.50;60.40;;;;;;4975665;28;20448;-65
2022/03/03 01:31:25;;;;;;;13.07;8.68;;;3.50;60.40;;;;;;4999283;28;20457;-65
2022/03/03 01:33:51;;;;;;;16.48;10.23;;;3.50;60.60;;;;;;4999630;28;20092;-65
2022/03/03 01:36:16;;;;;;;15.90;10.23;;;3.40;61.20;;;;;;4990675;28;20053;-65
2022/03/03 01:38:42;;;;;;;17.70;10.98;;;3.40;61.50;;;;;;4999174;28;20523;-65
2022/03/03 01:41:08;;;;;;;17.63;11.20;;;3.40;62.10;;;;;;4993380;28;20026;-65
2022/03/03 01:43:34;;;;;;;20.67;12.77;;;3.40;62.50;;;;;;4972999;28;20030;-65
2022/03/03 01:46:00;;;;;;;18.40;11.68;;;3.30;62.80;;;;;;4990442;28;20393;-65
2022/03/03 01:48:25;;;;;;;18.00;12.20;;;3.20;63.20;;;;;;4990190;28;20034;-65
2022/03/03 01:50:52;;;;;;;21.45;12.60;;;3.20;63.80;;;;;;4990478;28;20084;-65
2022/03/03 01:53:18;;;;;;;18.65;12.48;;;3.10;64.20;;;;;;4990269;28;20018;-65
2022/03/03 01:55:44;;;;;;;18.55;12.02;;;3.10;64.70;;;;;;4989973;28;20031;-65
2022/03/03 01:58:09;;;;;;;18.92;12.32;;;3.00;64.90;;;;;;4989856;28;20069;-65
2022/03/03 02:00:35;;;;;;;20.70;13.05;;;3.00;65.20;;;;;;4990463;28;20026;-65
2022/03/03 02:03:01;;;;;;;18.75;12.18;;;3.00;65.60;;;;;;4989850;28;20117;-65
2022/03/03 02:05:28;;;;;;;17.58;11.70;;;2.90;65.50;;;;;;4990140;28;20033;-65
2022/03/03 02:07:53;;;;;;;20.55;12.70;;;2.90;65.70;;;;;;4972347;28;20027;-65
2022/03/03 02:10:19;;;;;;;19.20;11.88;;;2.90;65.90;;;;;;4956774;28;20023;-65
2022/03/03 02:12:44;;;;;;;15.82;9.88;;;2.80;65.70;;;;;;4989604;28;20402;-65
2022/03/03 02:15:17;;;;;;;17.17;10.18;;;2.80;65.60;;;;;;4989864;28;20031;-65
2022/03/03 02:17:43;;;;;;;14.95;9.68;;;2.80;65.40;;;;;;4989553;28;20505;-65
2022/03/03 02:20:25;;;;;;;17.83;10.85;;;2.80;65.40;;;;;;4990103;28;20489;-65
2022/03/03 02:22:52;;;;;;;19.05;10.70;;;2.80;65.30;;;;;;4989707;28;20042;-65
2022/03/03 02:25:18;;;;;;;16.48;9.43;;;2.70;65.20;;;;;;4958876;28;20157;-65
2022/03/03 02:27:44;;;;;;;17.73;10.77;;;2.80;65.20;;;;;;4977539;28;20109;-65
2022/03/03 02:30:11;;;;;;;18.45;11.73;;;2.70;65.40;;;;;;4989616;28;20030;-65
2022/03/03 02:32:37;;;;;;;22.02;11.02;;;2.70;65.70;;;;;;4989760;28;20113;-65
2022/03/03 02:35:03;;;;;;;16.17;10.50;;;2.70;65.60;;;;;;4989858;28;20097;-65
2022/03/03 02:37:37;;;;;;;17.00;10.23;;;2.70;65.90;;;;;;4989432;28;20034;-65
2022/03/03 02:40:05;;;;;;;16.60;10.02;;;2.70;65.90;;;;;;4960730;28;20092;-68
2022/03/03 02:42:30;;;;;;;17.23;10.40;;;2.60;65.90;;;;;;4964025;28;20118;-65
2022/03/03 02:44:56;;;;;;;16.67;10.23;;;2.60;66.60;;;;;;4989400;28;20101;-65
2022/03/03 02:47:22;;;;;;;14.90;9.93;;;2.60;66.00;;;;;;4989309;28;20037;-65
2022/03/03 02:49:47;;;;;;;15.10;9.77;;;2.60;66.10;;;;;;4989405;28;20066;-65
2022/03/03 02:52:13;;;;;;;18.40;11.45;;;2.60;66.10;;;;;;4989174;28;20057;-64
2022/03/03 02:54:39;;;;;;;17.10;10.88;;;2.60;66.40;;;;;;4989419;28;20022;-65
2022/03/03 02:59:49;;;;;;;17.48;10.88;;;2.50;66.50;;;;;;4989420;28;20038;-65
2022/03/03 03:02:15;;;;;;;16.00;9.85;;;2.50;66.50;;;;;;4989270;28;20069;-65
2022/03/03 03:04:40;;;;;;;15.60;10.02;;;2.50;66.30;;;;;;4989002;28;20062;-65
2022/03/03 03:07:06;;;;;;;18.52;10.95;;;2.50;66.40;;;;;;4989316;28;20381;-65
2022/03/03 03:09:32;;;;;;;17.70;11.15;;;2.40;66.90;;;;;;4991622;28;20026;-65
2022/03/03 03:11:57;;;;;;;17.02;10.23;;;2.40;66.90;;;;;;4993353;28;20022;-65
2022/03/03 03:14:23;;;;;;;15.85;9.25;;;2.40;66.80;;;;;;4959585;28;20018;-66
2022/03/03 03:16:48;;;;;;;15.70;9.05;;;2.30;66.80;;;;;;4993318;28;20034;-65
2022/03/03 03:19:14;;;;;;;14.68;8.88;;;2.30;66.70;;;;;;4992985;28;20022;-65
2022/03/03 03:21:40;;;;;;;14.40;7.97;;;2.30;66.70;;;;;;4993227;28;20023;-65
2022/03/03 03:24:05;;;;;;;14.65;8.75;;;2.30;66.60;;;;;;4992918;28;20041;-65
2022/03/03 03:26:31;;;;;;;14.95;9.13;;;2.30;66.60;;;;;;4978277;28;20026;-65
2022/03/03 03:28:56;;;;;;;13.82;8.82;;;2.30;66.60;;;;;;4992951;28;20026;-65
2022/03/03 03:31:22;;;;;;;15.00;8.52;;;2.30;66.70;;;;;;4978099;28;20049;-65
2022/03/03 03:33:47;;;;;;;14.50;8.73;;;2.30;66.70;;;;;;4992903;28;20061;-65
2022/03/03 03:36:13;;;;;;;14.23;9.40;;;2.30;66.80;;;;;;4978176;28;20030;-65
2022/03/03 03:38:39;;;;;;;15.77;9.18;;;2.20;66.90;;;;;;4988501;28;20030;-65
2022/03/03 03:41:04;;;;;;;13.73;8.95;;;2.30;67.60;;;;;;4992599;28;20482;-65
2022/03/03 03:43:30;;;;;;;13.57;8.30;;;2.20;66.90;;;;;;4983373;28;20541;-65
2022/03/03 03:45:56;;;;;;;13.52;8.88;;;2.20;66.90;;;;;;4980570;28;20061;-65
2022/03/03 03:48:22;;;;;;;15.43;9.95;;;2.20;67.10;;;;;;4992492;28;20037;-65
2022/03/03 03:50:47;;;;;;;15.48;9.25;;;2.20;67.40;;;;;;4992649;28;20037;-65
2022/03/03 03:53:13;;;;;;;14.50;9.63;;;2.10;67.30;;;;;;4992581;28;20023;-65
2022/03/03 03:55:38;;;;;;;14.65;9.15;;;2.10;67.40;;;;;;4961727;28;20030;-65
2022/03/03 03:58:04;;;;;;;14.98;9.88;;;2.10;67.40;;;;;;4992274;28;20034;-65
2022/03/03 04:00:29;;;;;;;16.05;10.43;;;2.00;67.40;;;;;;4992421;28;20434;-65
2022/03/03 04:02:55;;;;;;;18.30;10.57;;;2.00;67.60;;;;;;4992252;28;20038;-65
2022/03/03 04:05:21;;;;;;;18.17;10.35;;;2.00;67.70;;;;;;4992275;28;20106;-64
2022/03/03 04:07:46;;;;;;;15.00;9.45;;;2.00;67.70;;;;;;4964127;28;20130;-65
2022/03/03 04:10:12;;;;;;;15.45;9.43;;;2.00;67.80;;;;;;4992151;28;20034;-64
2022/03/03 04:12:39;;;;;;;15.40;8.45;;;1.90;67.70;;;;;;4992223;28;20054;-65
2022/03/03 04:15:06;;;;;;;13.52;8.95;;;1.90;68.40;;;;;;4991967;28;20080;-65
2022/03/03 04:17:32;;;;;;;14.63;8.85;;;1.90;67.80;;;;;;4992053;28;20390;-65
2022/03/03 04:19:58;;;;;;;14.05;9.10;;;1.90;68.00;;;;;;4991573;28;20018;-65
2022/03/03 04:22:23;;;;;;;14.80;9.82;;;1.90;68.10;;;;;;4991701;28;20066;-65
2022/03/03 04:24:49;;;;;;;16.17;9.82;;;1.90;68.30;;;;;;4992108;28;20431;-65
2022/03/03 04:27:14;;;;;;;15.68;9.77;;;1.90;68.40;;;;;;4991917;28;20550;-65
2022/03/03 04:29:40;;;;;;;16.05;9.13;;;1.80;69.10;;;;;;4991894;28;20033;-65
2022/03/03 04:32:06;;;;;;;13.73;8.82;;;1.80;68.40;;;;;;4991686;28;20477;-65
2022/03/03 04:34:31;;;;;;;14.60;8.93;;;1.80;68.40;;;;;;4991880;28;20464;-65
2022/03/03 04:36:57;;;;;;;15.85;8.63;;;1.80;68.30;;;;;;4991789;28;20030;-65
2022/03/03 04:39:23;;;;;;;13.63;8.40;;;1.80;68.40;;;;;;4991473;28;20065;-65
2022/03/03 04:41:48;;;;;;;15.27;9.35;;;1.80;68.30;;;;;;4991792;28;20030;-65
2022/03/03 04:44:14;;;;;;;14.10;9.63;;;1.80;68.30;;;;;;4974206;28;20027;-65
2022/03/03 04:46:39;;;;;;;12.70;8.60;;;1.70;68.40;;;;;;4991736;28;20031;-65
2022/03/03 04:49:07;;;;;;;16.10;9.07;;;1.70;68.40;;;;;;4991409;28;20030;-65
2022/03/03 04:51:36;;;;;;;13.85;8.45;;;1.70;68.40;;;;;;4991514;28;20462;-65
2022/03/03 04:54:06;;;;;;;13.57;8.32;;;1.70;68.40;;;;;;4991338;28;20064;-65
2022/03/03 04:56:32;;;;;;;15.25;8.88;;;1.70;68.30;;;;;;4973967;28;20061;-65
2022/03/03 04:58:58;;;;;;;12.13;7.88;;;1.70;68.30;;;;;;4991260;28;20030;-65
2022/03/03 05:01:24;;;;;;;13.10;8.45;;;1.70;68.30;;;;;;4984329;28;20488;-65
2022/03/03 05:03:49;;;;;;;13.13;8.60;;;1.70;68.20;;;;;;4991307;28;20065;-65
2022/03/03 05:06:17;;;;;;;14.85;9.00;;;1.60;68.20;;;;;;4991287;28;20096;-65
2022/03/03 05:08:42;;;;;;;12.80;8.20;;;1.60;68.90;;;;;;4991225;28;20018;-65
2022/03/03 05:11:08;;;;;;;12.55;8.43;;;1.60;68.30;;;;;;4991081;28;20508;-65
2022/03/03 05:13:34;;;;;;;15.20;8.68;;;1.60;68.40;;;;;;4991094;28;20030;-65
2022/03/03 05:16:00;;;;;;;16.10;8.98;;;1.50;68.50;;;;;;4991048;28;20041;-65
2022/03/03 05:18:26;;;;;;;15.00;8.95;;;1.50;68.60;;;;;;4990960;28;20030;-65
2022/03/03 05:20:52;;;;;;;15.07;8.38;;;1.50;68.60;;;;;;4967951;28;20106;-65
2022/03/03 05:23:17;;;;;;;13.27;8.10;;;1.40;68.60;;;;;;4990793;28;20042;-65
2022/03/03 05:25:43;;;;;;;14.20;8.27;;;1.40;68.70;;;;;;4990677;28;20018;-65
2022/03/03 05:28:09;;;;;;;11.60;7.80;;;1.30;68.80;;;;;;4990825;28;20030;-65
2022/03/03 05:30:34;;;;;;;12.35;8.15;;;1.20;69.00;;;;;;4990375;28;20089;-65
2022/03/03 05:33:00;;;;;;;14.55;9.13;;;1.20;69.20;;;;;;4990310;28;20076;-64
2022/03/03 05:35:25;;;;;;;13.07;7.97;;;1.10;69.20;;;;;;4992792;28;20490;-64
2022/03/03 05:37:51;;;;;;;12.98;8.25;;;1.10;69.30;;;;;;4994056;28;20493;-64
2022/03/03 05:40:17;;;;;;;15.18;8.80;;;1.10;69.40;;;;;;4994426;28;20037;-65
2022/03/03 05:42:43;;;;;;;13.68;8.80;;;1.10;69.50;;;;;;4994071;28;20022;-65
2022/03/03 05:45:09;;;;;;;15.15;8.65;;;1.10;69.50;;;;;;4994269;28;20022;-64
2022/03/03 05:47:35;;;;;;;15.50;8.68;;;1.10;69.60;;;;;;4994243;28;20018;-65
2022/03/03 05:50:02;;;;;;;14.77;8.68;;;1.00;69.60;;;;;;4976655;28;20367;-64
2022/03/03 05:52:28;;;;;;;14.60;8.30;;;1.00;69.70;;;;;;4994443;28;20034;-64
2022/03/03 05:54:54;;;;;;;13.95;8.38;;;1.00;69.80;;;;;;4994372;28;20525;-65
2022/03/03 05:57:32;;;;;;;16.80;8.80;;;0.90;69.80;;;;;;4994277;28;20022;-64
2022/03/03 06:00:05;;;;;;;12.23;8.43;;;0.90;69.90;;;;;;4994130;28;20496;-65
2022/03/03 06:02:31;;;;;;;12.50;7.90;;;0.90;70.00;;;;;;4994098;28;20030;-64
2022/03/03 06:04:58;;;;;;;14.80;8.95;;;0.80;70.00;;;;;;4994131;28;20124;-64
2022/03/03 06:07:28;;;;;;;14.63;9.60;;;0.90;70.30;;;;;;4994167;28;20030;-65
2022/03/03 06:09:57;;;;;;;;;;;0.80;70.30;;;;;;4994828;28;20122;-65
2022/03/03 06:12:51;;;;;;;13.50;8.25;;;0.80;70.40;;;;;;4994013;28;20531;-64
2022/03/03 06:15:21;;;;;;;15.38;9.85;;;0.80;70.60;;;;;;4993942;28;20030;-64
2022/03/03 06:17:48;;;;;;;15.23;8.65;;;0.70;70.70;;;;;;4993182;28;20532;-65
2022/03/03 06:20:15;;;;;;;17.75;9.88;;;0.80;70.80;;;;;;4975322;28;20471;-64
2022/03/03 06:22:41;;;;;;;17.73;9.63;;;0.70;70.90;;;;;;4993657;28;20152;-64
2022/03/03 06:25:08;;;;;;;16.48;10.10;;;0.70;71.10;;;;;;4993776;28;20049;-65
2022/03/03 06:27:33;;;;;;;20.30;11.70;;;0.70;71.40;;;;;;4993412;28;20077;-65
2022/03/03 06:29:59;;;;;;;20.73;10.93;;;0.70;71.60;;;;;;4993688;28;20026;-65
2022/03/03 06:32:25;;;;;;;20.17;11.30;;;0.70;71.90;;;;;;4993662;28;20462;-64
2022/03/03 06:34:51;;;;;;;20.27;11.50;;;0.70;72.10;;;;;;4976301;28;20121;-65
2022/03/03 06:37:16;;;;;;;19.33;11.07;;;0.70;72.30;;;;;;4993397;28;20030;-64
2022/03/03 06:39:42;;;;;;;17.65;11.25;;;0.70;72.50;;;;;;4993526;28;20184;-64
2022/03/03 06:42:07;;;;;;;19.90;12.20;;;0.70;72.70;;;;;;4993322;28;20505;-65
2022/03/03 06:44:33;;;;;;;17.30;10.40;;;0.60;72.90;;;;;;4993653;28;20493;-64
2022/03/03 06:46:59;;;;;;;19.38;11.00;;;0.60;73.10;;;;;;4993496;28;20022;-65
2022/03/03 06:49:25;;;;;;;18.83;11.27;;;0.60;73.10;;;;;;4993564;28;20385;-64
2022/03/03 06:51:55;;;;;;;15.00;9.63;;;0.60;73.10;;;;;;4993248;28;20490;-65
2022/03/03 06:54:22;;;;;;;14.75;8.95;;;0.70;73.10;;;;;;4993516;28;20034;-65
2022/03/03 06:56:56;;;;;;;19.23;10.38;;;0.70;73.10;;;;;;4993429;28;20102;-65
2022/03/03 06:59:25;;;;;;;15.20;9.30;;;0.70;73.20;;;;;;4993351;28;20117;-64
2022/03/03 07:01:51;;;;;;;17.60;9.80;;;0.80;73.20;;;;;;4993126;28;20486;-65
2022/03/03 07:04:18;;;;;;;15.20;9.60;;;0.80;73.10;;;;;;4992916;28;20030;-65
2022/03/03 07:06:45;;;;;;;15.27;9.40;;;0.80;73.10;;;;;;4975846;28;20027;-65
2022/03/03 07:09:11;;;;;;;18.20;9.45;;;0.80;73.10;;;;;;4993164;28;20030;-65
2022/03/03 07:11:39;;;;;;;18.02;10.82;;;0.80;73.20;;;;;;4993239;28;20393;-65
2022/03/03 07:14:05;;;;;;;19.08;11.90;;;0.90;73.40;;;;;;4993107;28;20105;-64
2022/03/03 07:16:50;;;;;;;21.20;11.88;;;0.90;73.70;;;;;;4993353;28;20058;-64
2022/03/03 07:19:26;;;;;;;19.48;11.52;;;1.00;73.90;;;;;;4993146;28;20026;-65
2022/03/03 07:22:34;;;;;;;19.20;10.30;;;1.00;74.00;;;;;;4993038;28;20445;-65
2022/03/03 07:25:14;;;;;;;18.25;11.05;;;1.00;73.90;;;;;;4986716;28;20113;-66
2022/03/03 07:27:44;;;;;;;19.90;12.32;;;1.00;74.00;;;;;;4997111;28;20033;-65
2022/03/03 07:30:15;;;;;;;19.77;12.00;;;1.00;74.20;;;;;;5003154;28;20057;-65
2022/03/03 07:32:44;;;;;;;21.17;12.38;;;1.10;74.40;;;;;;5008426;28;20037;-65
2022/03/03 07:35:13;;;;;;;20.73;11.77;;;1.20;74.50;;;;;;4985679;28;20451;-65
2022/03/03 07:37:44;;;;;;;19.13;11.23;;;1.20;74.40;;;;;;4987896;28;20134;-66
2022/03/03 07:40:10;;;;;;;19.65;11.70;;;1.30;74.60;;;;;;5000179;28;20394;-65
2022/03/03 07:42:37;;;;;;;18.77;11.30;;;1.30;74.50;;;;;;4980976;28;20415;-65
2022/03/03 07:45:07;;;;;;;19.55;11.70;;;1.40;74.50;;;;;;5002145;28;20041;-65
2022/03/03 07:47:33;;;;;;;18.75;11.98;;;1.50;74.50;;;;;;5008005;28;20030;-65
2022/03/03 07:49:59;;;;;;;17.65;10.90;;;1.60;74.50;;;;;;5012460;28;20028;-65
2022/03/03 07:52:25;;;;;;;19.27;12.13;;;1.60;74.40;;;;;;5012353;28;20482;-65
2022/03/03 07:54:51;;;;;;;19.88;11.82;;;1.70;75.00;;;;;;5011774;28;20030;-65
2022/03/03 07:57:19;;;;;;;19.35;11.95;;;1.70;74.40;;;;;;5016068;28;20045;-66
2022/03/03 07:59:47;;;;;;;19.30;11.93;;;1.80;74.40;;;;;;4985838;28;20027;-65
2022/03/03 08:02:22;;;;;;;17.60;11.82;;;1.80;74.20;;;;;;4995986;28;20019;-66
2022/03/03 08:04:50;;;;;;;19.38;12.02;;;2.00;74.20;;;;;;4978304;28;20057;-65
2022/03/03 08:07:17;;;;;;;18.85;12.60;;;2.00;74.10;;;;;;4978151;28;20026;-65
2022/03/03 08:09:46;;;;;;;18.88;12.35;;;2.10;74.10;;;;;;4996211;28;20054;-65
2022/03/03 08:12:14;;;;;;;20.17;12.73;;;2.10;74.10;;;;;;4995792;28;20022;-66
2022/03/03 08:14:40;;;;;;;18.92;12.73;;;2.20;74.10;;;;;;4996058;28;20429;-65
2022/03/03 08:17:08;;;;;;;19.23;12.70;;;2.30;74.10;;;;;;4995885;28;20018;-65
2022/03/03 08:19:34;;;;;;;20.50;13.38;;;2.40;74.50;;;;;;4996107;28;20019;-65
2022/03/03 08:21:59;;;;;;;27.20;14.18;;;2.50;74.60;;;;;;4995840;28;20089;-65
2022/03/03 08:24:26;;;;;;;22.27;12.93;;;2.60;74.60;;;;;;4996060;28;20030;-65
2022/03/03 08:26:54;;;;;;;19.67;13.27;;;2.60;74.60;;;;;;4995895;28;20034;-65
2022/03/03 08:29:20;;;;;;;25.40;14.25;;;2.70;74.80;;;;;;4995961;28;20030;-66
2022/03/03 08:31:49;;;;;;;21.13;14.23;;;2.80;74.70;;;;;;4976861;28;20041;-65
2022/03/03 08:34:22;;;;;;;21.67;13.52;;;2.90;75.40;;;;;;4978218;28;20030;-65
2022/03/03 08:36:58;;;;;;;18.50;13.02;;;3.00;74.70;;;;;;4995946;28;20512;-65
2022/03/03 08:39:28;;;;;;;20.02;12.80;;;3.10;74.70;;;;;;4995574;28;20068;-66
2022/03/03 08:41:59;;;;;;;19.20;12.15;;;3.20;74.70;;;;;;4995717;28;20027;-66
2022/03/03 08:44:36;;;;;;;18.80;13.20;;;3.30;74.60;;;;;;4995547;28;20030;-66
2022/03/03 08:47:06;;;;;;;19.08;12.23;;;3.40;74.50;;;;;;4995586;28;20026;-65
2022/03/03 08:49:37;;;;;;;19.80;12.50;;;3.50;74.50;;;;;;4982967;23;20392;-93
2022/03/03 08:52:14;;;;;;;19.60;13.02;;;3.50;74.40;;;;;;5012326;28;20033;-92
2022/03/03 08:54:40;;;;;;;19.33;13.38;;;3.70;74.50;;;;;;5030007;28;20025;-92
2022/03/03 08:57:06;;;;;;;20.85;12.48;;;3.70;74.50;;;;;;5035538;28;20035;-92
2022/03/03 08:59:32;;;;;;;19.60;12.95;;;3.90;74.40;;;;;;5023693;28;20028;-94
2022/03/03 09:01:58;;;;;;;18.50;12.75;;;4.00;74.30;;;;;;5018161;28;20045;-91
2022/03/03 09:04:23;;;;;;;18.58;12.02;;;4.10;74.10;;;;;;5002500;28;20032;-92
2022/03/03 09:06:49;;;;;;;18.02;12.20;;;4.20;74.00;;;;;;4986848;28;20764;-92
2022/03/03 09:09:15;;;;;;;18.00;11.65;;;4.30;73.80;;;;;;5001655;28;20025;-91
2022/03/03 09:11:41;;;;;;;18.52;12.38;;;4.40;73.60;;;;;;4995023;28;20465;-91
2022/03/03 09:14:07;;;;;;;18.70;12.77;;;4.50;73.40;;;;;;5001029;28;20065;-94
2022/03/03 09:16:34;;;;;;;16.75;10.90;;;4.60;73.10;;;;;;4989998;28;20024;-92
2022/03/03 09:19:00;;;;;;;18.80;12.13;;;4.70;72.90;;;;;;4988180;28;20026;-92
2022/03/03 09:21:27;;;;;;;19.52;12.68;;;4.90;72.70;;;;;;4983810;28;20018;-93
2022/03/03 09:23:53;;;;;;;17.13;11.85;;;5.00;72.50;;;;;;4988469;28;20071;-93
2022/03/03 09:26:19;;;;;;;15.40;10.85;;;5.10;72.20;;;;;;5009350;28;20025;-92
2022/03/03 09:28:44;;;;;;;16.75;11.52;;;5.30;72.00;;;;;;4996700;28;20370;-94
2022/03/03 09:31:10;;;;;;;18.98;11.98;;;5.30;71.60;;;;;;4992143;28;20280;-94
2022/03/03 09:33:36;;;;;;;18.15;12.85;;;5.40;71.30;;;;;;4995929;28;20167;-95
2022/03/03 09:36:02;;;;;;;18.17;11.68;;;5.60;71.00;;;;;;4998707;28;20071;-94
2022/03/03 09:38:27;;;;;;;15.88;11.35;;;5.70;70.70;;;;;;4996295;28;20052;-92
2022/03/03 09:40:53;;;;;;;19.05;12.85;;;5.80;70.40;;;;;;4999665;28;20087;-93
2022/03/03 09:43:19;;;;;;;18.17;11.68;;;6.00;70.40;;;;;;4996163;28;20105;-95
2022/03/03 09:45:44;;;;;;;17.38;10.35;;;6.20;67.20;;;;;;5010271;23;20057;-73
2022/03/03 09:48:10;;;;;;;15.30;9.77;;;6.40;59.00;;;;;;4972321;28;20273;-73
2022/03/03 09:50:37;;;;;;;17.83;10.02;;;6.70;58.10;;;;;;4995701;28;20125;-73
2022/03/03 09:53:21;;;;;;;12.73;8.15;;;6.90;58.30;;;;;;4979710;28;20448;-73
2022/03/03 09:55:49;;;;;;;13.48;8.63;;;7.10;58.70;;;;;;4995956;28;20029;-73
2022/03/03 09:58:15;;;;;;;15.57;9.07;;;7.20;57.60;;;;;;4994390;28;20128;-73
2022/03/03 10:00:41;;;;;;;16.00;10.25;;;7.50;57.90;;;;;;4992472;28;20022;-73
2022/03/03 10:03:13;;;;;;;13.32;9.07;;;7.70;58.00;;;;;;5012756;28;20028;-73
2022/03/03 10:05:53;;;;;;;12.82;8.95;;;7.90;56.50;;;;;;5001788;28;20025;-74
2022/03/03 10:08:27;;;;;;;12.95;8.32;;;8.20;55.90;;;;;;4997385;28;20088;-74
2022/03/03 10:10:55;;;;;;;15.85;10.00;;;8.40;55.90;;;;;;4995478;28;20052;-73
2022/03/03 10:13:21;;;;;;;12.48;9.23;;;8.60;53.90;;;;;;4971976;28;20030;-73
2022/03/03 10:15:56;;;;;;;15.05;8.88;;;8.80;53.60;;;;;;5002248;28;20057;-73
2022/03/03 10:18:23;;;;;;;15.65;10.55;;;9.10;52.70;;;;;;4996722;28;20061;-74
2022/03/03 10:20:58;;;;;;;14.43;8.82;;;9.30;51.50;;;;;;4963814;28;20089;-73
2022/03/03 10:23:30;;;;;;;15.35;9.48;;;9.60;52.10;;;;;;4963739;28;20032;-72
2022/03/03 10:25:58;;;;;;;14.48;9.48;;;9.90;51.70;;;;;;4953849;28;20338;-72
2022/03/03 10:28:30;;;;;;;13.63;9.25;;;10.20;52.20;;;;;;5010581;28;20022;-72
2022/03/03 10:31:05;;;;;;;12.25;9.23;;;10.60;53.00;;;;;;5009529;28;20564;-72
2022/03/03 10:33:45;;;;;;;12.50;8.43;;;11.00;53.70;;;;;;5004180;28;20551;-72
2022/03/03 10:36:14;;;;;;;11.52;9.05;;;11.60;54.50;;;;;;5011147;28;20485;-73
2022/03/03 10:38:47;;;;;;;11.15;9.00;;;12.20;56.10;;;;;;5003099;28;20029;-72
2022/03/03 10:41:46;;;;;;;12.00;8.77;;;13.90;56.20;;;;;;5020966;28;20116;-73
2022/03/03 10:44:21;;;;;;;10.60;8.80;;;18.10;51.40;;;;;;4974787;28;20025;-73
2022/03/03 10:47:01;;;;;;;10.32;8.25;;;21.70;44.80;;;;;;5000039;28;20037;-73
2022/03/03 10:49:27;;;;;;;9.45;7.88;;;25.10;40.60;;;;;;5015564;28;20033;-73
2022/03/03 10:51:53;;;;;;;10.50;8.75;;;27.80;37.40;;;;;;5018654;28;20026;-72
2022/03/03 10:54:19;;;;;;;9.82;8.30;;;30.20;34.40;;;;;;5014582;28;20468;-73
2022/03/03 10:56:48;;;;;;;8.80;7.55;;;32.10;31.20;;;;;;4995250;28;20060;-73
2022/03/03 10:59:24;;;;;;;8.95;7.60;;;33.90;30.20;;;;;;5006155;28;20026;-73
2022/03/03 11:01:51;;;;;;;9.48;8.48;;;35.70;29.20;;;;;;5010438;28;20030;-73
2022/03/03 11:04:19;;;;;;;10.18;7.95;;;36.80;27.90;;;;;;4990984;28;20014;-73
2022/03/03 11:06:49;;;;;;;9.05;7.97;;;37.40;26.80;;;;;;5009118;28;20567;-73
2022/03/03 11:09:16;;;;;;;8.18;7.22;;;38.20;26.70;;;;;;5011622;28;20033;-73
2022/03/03 11:11:41;;;;;;;6.68;6.05;;;39.20;26.60;;;;;;5016429;28;20014;-73
2022/03/03 11:14:07;;;;;;;7.05;6.18;;;40.40;26.50;;;;;;5016296;28;20040;-73
2022/03/03 11:16:33;;;;;;;6.07;5.57;;;41.70;26.10;;;;;;5019139;28;20456;-73
2022/03/03 11:19:00;;;;;;;7.25;6.55;;;42.80;25.80;;;;;;4985091;28;20470;-72
2022/03/03 11:21:25;;;;;;;6.40;5.68;;;43.50;24.70;;;;;;5017171;28;20030;-72
2022/03/03 11:23:59;;;;;;;6.68;6.07;;;44.20;24.70;;;;;;5017135;28;20481;-72
2022/03/03 11:26:42;;;;;;;6.93;6.32;;;45.00;24.30;;;;;;5005473;28;20021;-72
2022/03/03 11:29:13;;;;;;;6.47;5.88;;;45.80;24.10;;;;;;4996210;28;20013;-73
2022/03/03 11:32:01;;;;;;;7.00;6.40;;;46.40;23.80;;;;;;5003365;28;20491;-72
2022/03/03 11:34:43;;;;;;;5.63;5.22;;;47.00;23.50;;;;;;4978429;28;20397;-73
2022/03/03 11:37:23;;;;;;;6.80;6.20;;;47.60;23.40;;;;;;4994919;28;20017;-72
2022/03/03 11:39:57;;;;;;;5.97;5.47;;;47.90;22.90;;;;;;5012824;28;20029;-73
2022/03/03 11:42:39;;;;;;;6.32;5.80;;;48.20;22.70;;;;;;4979103;28;20022;-71
2022/03/03 11:45:15;;;;;;;5.97;5.47;;;48.20;22.60;;;;;;4984068;28;20021;-73
2022/03/03 11:47:45;;;;;;;7.15;6.55;;;48.70;22.60;;;;;;4988291;28;20956;-71
2022/03/03 11:50:16;;;;;;;7.47;6.78;;;49.10;22.10;;;;;;5012453;28;20032;-73
2022/03/03 11:52:44;;;;;;;6.47;5.85;;;49.40;21.90;;;;;;5017036;28;20044;-70
2022/03/03 11:55:32;;;;;;;6.22;5.63;;;49.30;21.90;;;;;;5006878;28;20496;-73
2022/03/03 11:58:01;;;;;;;6.68;6.18;;;49.10;21.80;;;;;;4974445;28;20452;-73
2022/03/03 12:00:28;;;;;;;5.97;5.38;;;49.40;21.70;;;;;;4997655;28;20017;-73
2022/03/03 12:03:08;;;;;;;7.00;6.40;;;49.10;21.30;;;;;;4998809;28;20014;-73
2022/03/03 12:05:47;;;;;;;6.50;6.00;;;48.80;21.10;;;;;;4994316;28;20030;-73
2022/03/03 12:08:16;;;;;;;6.20;5.70;;;48.00;21.20;;;;;;4971340;28;20687;-73
2022/03/03 12:11:04;;;;;;;6.72;6.20;;;47.20;21.20;;;;;;4980691;28;20367;-73
2022/03/03 12:13:37;;;;;;;6.70;6.13;;;46.70;21.10;;;;;;4963995;28;20070;-73
2022/03/03 12:16:28;;;;;;;7.20;6.50;;;46.40;21.30;;;;;;4945992;28;20045;-73
2022/03/03 12:18:57;;;;;;;7.35;6.60;;;46.00;20.90;;;;;;4975068;28;20064;-72
2022/03/03 12:21:48;;;;;;;7.20;6.40;;;45.80;21.10;;;;;;4956172;28;20762;-72
2022/03/03 12:24:14;;;;;;;6.45;5.95;;;45.50;21.30;;;;;;4963386;28;20025;-73
2022/03/03 12:26:54;;;;;;;6.15;5.55;;;45.40;21.40;;;;;;4964511;28;20549;-73
2022/03/03 12:29:29;;;;;;;6.75;6.15;;;45.50;21.50;;;;;;4956003;28;20588;-72
2022/03/03 12:31:55;;;;;;;6.60;6.00;;;45.50;21.60;;;;;;4937526;28;20021;-73
2022/03/03 12:34:21;;;;;;;6.28;5.68;;;45.30;21.40;;;;;;4960484;28;20383;-73
2022/03/03 12:36:53;;;;;;;7.97;7.18;;;45.20;21.70;;;;;;4941777;28;20053;-73
2022/03/03 12:39:21;;;;;;;6.80;6.05;;;44.90;21.10;;;;;;4953171;28;20057;-73
2022/03/03 12:41:47;;;;;;;6.35;5.85;;;44.50;21.50;;;;;;4966156;28;20064;-73
2022/03/03 12:44:15;;;;;;;6.55;5.95;;;44.50;21.70;;;;;;4946129;28;20517;-73
2022/03/03 12:46:44;;;;;;;7.50;6.68;;;44.50;21.70;;;;;;4963512;28;20792;-73
2022/03/03 12:49:13;;;;;;;5.07;4.68;;;44.40;21.30;;;;;;4961650;28;20113;-73
2022/03/03 12:51:43;;;;;;;6.80;6.25;;;44.20;21.50;;;;;;4958720;28;21138;-73